sensor_id;sensor_type;location;lat;lon;timestamp;P1;durP1;ratioP1;P2;durP2;ratioP2
77109;SDS011;66062;52.464;16.922;2023-08-12T00:01:01;11.52;;;4.00;;
77109;SDS011;66062;52.464;16.922;2023-08-12T00:03:26;13.50;;;4.88;;
77109;SDS011;66062;52.464;16.922;2023-08-12T00:05:52;16.35;;;5.88;;
77109;SDS011;66062;52.464;16.922;2023-08-12T00:08:18;10.75;;;5.15;;
77109;SDS011;66062;52.464;16.922;2023-08-12T00:10:44;12.82;;;5.00;;
77109;SDS011;66062;52.464;16.922;2023-08-12T00:13:10;11.75;;;5.30;;
77109;SDS011;66062;52.464;16.922;2023-08-12T00:15:35;10.18;;;4.95;;
77109;SDS011;66062;52.464;16.922;2023-08-12T00:18:00;9.55;;;5.00;;
77109;SDS011;66062;52.464;16.922;2023-08-12T00:20:29;11.52;;;5.57;;
77109;SDS011;66062;52.464;16.922;2023-08-12T00:22:54;10.20;;;4.97;;
77109;SDS011;66062;52.464;16.922;2023-08-12T00:25:20;14.18;;;5.00;;
77109;SDS011;66062;52.464;16.922;2023-08-12T00:27:45;11.88;;;5.30;;
77109;SDS011;66062;52.464;16.922;2023-08-12T00:30:11;10.07;;;5.00;;
77109;SDS011;66062;52.464;16.922;2023-08-12T00:32:36;9.82;;;4.90;;
77109;SDS011;66062;52.464;16.922;2023-08-12T00:35:02;12.02;;;5.93;;
77109;SDS011;66062;52.464;16.922;2023-08-12T00:37:28;11.70;;;4.85;;
77109;SDS011;66062;52.464;16.922;2023-08-12T00:39:53;12.68;;;5.43;;
77109;SDS011;66062;52.464;16.922;2023-08-12T00:42:18;12.43;;;6.07;;
77109;SDS011;66062;52.464;16.922;2023-08-12T00:44:44;11.75;;;6.13;;
77109;SDS011;66062;52.464;16.922;2023-08-12T00:47:09;11.32;;;5.80;;
77109;SDS011;66062;52.464;16.922;2023-08-12T00:49:35;12.75;;;5.53;;
77109;SDS011;66062;52.464;16.922;2023-08-12T00:54:27;10.85;;;5.22;;
77109;SDS011;66062;52.464;16.922;2023-08-12T00:56:53;13.52;;;5.60;;
77109;SDS011;66062;52.464;16.922;2023-08-12T00:59:19;13.23;;;5.50;;
77109;SDS011;66062;52.464;16.922;2023-08-12T01:01:47;13.65;;;6.13;;
77109;SDS011;66062;52.464;16.922;2023-08-12T01:04:12;17.73;;;5.65;;
77109;SDS011;66062;52.464;16.922;2023-08-12T01:06:38;13.55;;;6.10;;
77109;SDS011;66062;52.464;16.922;2023-08-12T01:09:04;10.88;;;6.68;;
77109;SDS011;66062;52.464;16.922;2023-08-12T01:14:28;11.43;;;5.90;;
77109;SDS011;66062;52.464;16.922;2023-08-12T01:17:05;12.02;;;5.47;;
77109;SDS011;66062;52.464;16.922;2023-08-12T01:19:34;10.23;;;6.13;;
77109;SDS011;66062;52.464;16.922;2023-08-12T01:22:03;15.20;;;6.97;;
77109;SDS011;66062;52.464;16.922;2023-08-12T01:27:01;11.80;;;6.25;;
77109;SDS011;66062;52.464;16.922;2023-08-12T01:29:27;14.70;;;6.07;;
77109;SDS011;66062;52.464;16.922;2023-08-12T01:31:55;14.43;;;6.85;;
77109;SDS011;66062;52.464;16.922;2023-08-12T01:34:47;11.57;;;6.85;;
77109;SDS011;66062;52.464;16.922;2023-08-12T01:37:50;12.88;;;6.60;;
77109;SDS011;66062;52.464;16.922;2023-08-12T01:40:10;12.13;;;6.30;;
77109;SDS011;66062;52.464;16.922;2023-08-12T01:42:37;17.60;;;6.22;;
77109;SDS011;66062;52.464;16.922;2023-08-12T01:45:04;11.55;;;6.60;;
77109;SDS011;66062;52.464;16.922;2023-08-12T01:47:30;15.07;;;7.05;;
77109;SDS011;66062;52.464;16.922;2023-08-12T01:49:57;10.45;;;5.93;;
77109;SDS011;66062;52.464;16.922;2023-08-12T01:52:23;16.30;;;6.85;;
77109;SDS011;66062;52.464;16.922;2023-08-12T01:54:48;12.60;;;6.72;;
77109;SDS011;66062;52.464;16.922;2023-08-12T01:57:14;13.00;;;7.05;;
77109;SDS011;66062;52.464;16.922;2023-08-12T01:59:39;11.18;;;6.28;;
77109;SDS011;66062;52.464;16.922;2023-08-12T02:02:05;16.23;;;6.50;;
77109;SDS011;66062;52.464;16.922;2023-08-12T02:04:32;11.52;;;6.10;;
77109;SDS011;66062;52.464;16.922;2023-08-12T02:06:58;17.42;;;7.18;;
77109;SDS011;66062;52.464;16.922;2023-08-12T02:09:24;11.88;;;7.05;;
77109;SDS011;66062;52.464;16.922;2023-08-12T02:11:49;13.75;;;7.53;;
77109;SDS011;66062;52.464;16.922;2023-08-12T02:14:15;12.15;;;6.72;;
77109;SDS011;66062;52.464;16.922;2023-08-12T02:16:41;17.15;;;6.72;;
77109;SDS011;66062;52.464;16.922;2023-08-12T02:19:06;12.00;;;7.05;;
77109;SDS011;66062;52.464;16.922;2023-08-12T02:21:32;15.82;;;8.20;;
77109;SDS011;66062;52.464;16.922;2023-08-12T02:23:57;12.20;;;7.00;;
77109;SDS011;66062;52.464;16.922;2023-08-12T02:26:23;13.32;;;7.63;;
77109;SDS011;66062;52.464;16.922;2023-08-12T02:28:48;13.40;;;7.65;;
77109;SDS011;66062;52.464;16.922;2023-08-12T02:31:15;15.60;;;7.72;;
77109;SDS011;66062;52.464;16.922;2023-08-12T02:33:41;12.13;;;7.30;;
77109;SDS011;66062;52.464;16.922;2023-08-12T02:36:06;13.93;;;7.72;;
77109;SDS011;66062;52.464;16.922;2023-08-12T02:38:32;15.55;;;7.57;;
77109;SDS011;66062;52.464;16.922;2023-08-12T02:40:57;12.70;;;7.13;;
77109;SDS011;66062;52.464;16.922;2023-08-12T02:43:22;15.25;;;8.00;;
77109;SDS011;66062;52.464;16.922;2023-08-12T02:45:48;17.40;;;7.85;;
77109;SDS011;66062;52.464;16.922;2023-08-12T02:48:13;13.85;;;8.05;;
77109;SDS011;66062;52.464;16.922;2023-08-12T02:50:39;12.15;;;7.07;;
77109;SDS011;66062;52.464;16.922;2023-08-12T02:53:05;13.23;;;7.82;;
77109;SDS011;66062;52.464;16.922;2023-08-12T02:55:31;12.52;;;6.97;;
77109;SDS011;66062;52.464;16.922;2023-08-12T02:57:57;15.50;;;7.57;;
77109;SDS011;66062;52.464;16.922;2023-08-12T03:00:23;15.75;;;8.57;;
77109;SDS011;66062;52.464;16.922;2023-08-12T03:02:48;10.93;;;7.40;;
77109;SDS011;66062;52.464;16.922;2023-08-12T03:05:14;15.70;;;7.43;;
77109;SDS011;66062;52.464;16.922;2023-08-12T03:07:39;18.20;;;7.40;;
77109;SDS011;66062;52.464;16.922;2023-08-12T03:10:05;16.90;;;7.53;;
77109;SDS011;66062;52.464;16.922;2023-08-12T03:12:31;14.80;;;7.65;;
77109;SDS011;66062;52.464;16.922;2023-08-12T03:14:56;12.75;;;7.53;;
77109;SDS011;66062;52.464;16.922;2023-08-12T03:17:21;14.55;;;7.90;;
77109;SDS011;66062;52.464;16.922;2023-08-12T03:19:47;18.33;;;8.32;;
77109;SDS011;66062;52.464;16.922;2023-08-12T03:22:13;12.10;;;7.63;;
77109;SDS011;66062;52.464;16.922;2023-08-12T03:24:40;13.38;;;7.90;;
77109;SDS011;66062;52.464;16.922;2023-08-12T03:27:05;14.93;;;8.95;;
77109;SDS011;66062;52.464;16.922;2023-08-12T03:29:30;15.27;;;8.43;;
77109;SDS011;66062;52.464;16.922;2023-08-12T03:31:56;15.90;;;8.68;;
77109;SDS011;66062;52.464;16.922;2023-08-12T03:34:21;15.85;;;9.52;;
77109;SDS011;66062;52.464;16.922;2023-08-12T03:36:47;14.85;;;9.50;;
77109;SDS011;66062;52.464;16.922;2023-08-12T03:39:14;83.80;;;48.67;;
77109;SDS011;66062;52.464;16.922;2023-08-12T03:41:40;14.27;;;9.75;;
77109;SDS011;66062;52.464;16.922;2023-08-12T03:44:05;21.52;;;8.68;;
77109;SDS011;66062;52.464;16.922;2023-08-12T03:46:31;17.77;;;8.80;;
77109;SDS011;66062;52.464;16.922;2023-08-12T03:48:56;14.88;;;8.57;;
77109;SDS011;66062;52.464;16.922;2023-08-12T03:51:22;14.15;;;8.70;;
77109;SDS011;66062;52.464;16.922;2023-08-12T03:53:47;15.93;;;8.98;;
77109;SDS011;66062;52.464;16.922;2023-08-12T03:56:12;14.65;;;10.02;;
77109;SDS011;66062;52.464;16.922;2023-08-12T03:58:40;17.08;;;9.32;;
77109;SDS011;66062;52.464;16.922;2023-08-12T04:01:06;17.13;;;9.57;;
77109;SDS011;66062;52.464;16.922;2023-08-12T04:03:31;13.52;;;8.85;;
77109;SDS011;66062;52.464;16.922;2023-08-12T04:05:57;18.08;;;10.40;;
77109;SDS011;66062;52.464;16.922;2023-08-12T04:08:23;18.50;;;10.95;;
77109;SDS011;66062;52.464;16.922;2023-08-12T04:10:49;20.92;;;11.85;;
77109;SDS011;66062;52.464;16.922;2023-08-12T04:13:16;17.80;;;9.27;;
77109;SDS011;66062;52.464;16.922;2023-08-12T04:15:41;17.27;;;9.05;;
77109;SDS011;66062;52.464;16.922;2023-08-12T04:18:07;15.25;;;9.57;;
77109;SDS011;66062;52.464;16.922;2023-08-12T04:20:32;15.88;;;9.65;;
77109;SDS011;66062;52.464;16.922;2023-08-12T04:22:58;16.95;;;9.48;;
77109;SDS011;66062;52.464;16.922;2023-08-12T04:25:25;13.70;;;8.88;;
77109;SDS011;66062;52.464;16.922;2023-08-12T04:30:18;28.20;;;17.83;;
77109;SDS011;66062;52.464;16.922;2023-08-12T04:32:43;15.30;;;9.95;;
77109;SDS011;66062;52.464;16.922;2023-08-12T04:35:09;16.52;;;9.00;;
77109;SDS011;66062;52.464;16.922;2023-08-12T04:37:35;14.88;;;9.27;;
77109;SDS011;66062;52.464;16.922;2023-08-12T04:40:01;15.60;;;8.23;;
77109;SDS011;66062;52.464;16.922;2023-08-12T04:42:29;15.85;;;8.75;;
77109;SDS011;66062;52.464;16.922;2023-08-12T04:44:54;16.42;;;9.70;;
77109;SDS011;66062;52.464;16.922;2023-08-12T04:47:20;16.52;;;9.57;;
77109;SDS011;66062;52.464;16.922;2023-08-12T04:49:45;12.38;;;8.05;;
77109;SDS011;66062;52.464;16.922;2023-08-12T04:52:11;15.82;;;8.80;;
77109;SDS011;66062;52.464;16.922;2023-08-12T04:54:36;14.23;;;9.07;;
77109;SDS011;66062;52.464;16.922;2023-08-12T04:57:01;15.75;;;8.85;;
77109;SDS011;66062;52.464;16.922;2023-08-12T04:59:27;11.73;;;8.38;;
77109;SDS011;66062;52.464;16.922;2023-08-12T05:01:52;17.77;;;7.65;;
77109;SDS011;66062;52.464;16.922;2023-08-12T05:04:18;14.65;;;8.52;;
77109;SDS011;66062;52.464;16.922;2023-08-12T05:06:43;13.38;;;8.48;;
77109;SDS011;66062;52.464;16.922;2023-08-12T05:09:08;14.30;;;9.23;;
77109;SDS011;66062;52.464;16.922;2023-08-12T05:11:34;18.40;;;8.77;;
77109;SDS011;66062;52.464;16.922;2023-08-12T05:13:59;13.32;;;8.25;;
77109;SDS011;66062;52.464;16.922;2023-08-12T05:16:25;13.20;;;8.18;;
77109;SDS011;66062;52.464;16.922;2023-08-12T05:18:50;13.57;;;8.15;;
77109;SDS011;66062;52.464;16.922;2023-08-12T05:21:16;18.60;;;7.82;;
77109;SDS011;66062;52.464;16.922;2023-08-12T05:23:41;12.23;;;8.38;;
77109;SDS011;66062;52.464;16.922;2023-08-12T05:26:06;13.02;;;7.70;;
77109;SDS011;66062;52.464;16.922;2023-08-12T05:28:32;15.88;;;8.55;;
77109;SDS011;66062;52.464;16.922;2023-08-12T05:30:57;13.43;;;8.07;;
77109;SDS011;66062;52.464;16.922;2023-08-12T05:33:23;13.35;;;8.40;;
77109;SDS011;66062;52.464;16.922;2023-08-12T05:35:48;13.50;;;7.28;;
77109;SDS011;66062;52.464;16.922;2023-08-12T05:38:14;13.52;;;7.47;;
77109;SDS011;66062;52.464;16.922;2023-08-12T05:40:39;14.55;;;7.35;;
77109;SDS011;66062;52.464;16.922;2023-08-12T05:43:06;12.50;;;7.13;;
77109;SDS011;66062;52.464;16.922;2023-08-12T05:45:31;20.20;;;7.82;;
77109;SDS011;66062;52.464;16.922;2023-08-12T05:47:56;9.80;;;6.53;;
77109;SDS011;66062;52.464;16.922;2023-08-12T05:50:22;11.90;;;6.80;;
77109;SDS011;66062;52.464;16.922;2023-08-12T05:52:47;14.82;;;6.57;;
77109;SDS011;66062;52.464;16.922;2023-08-12T05:55:13;20.85;;;11.52;;
77109;SDS011;66062;52.464;16.922;2023-08-12T05:57:38;13.82;;;6.20;;
77109;SDS011;66062;52.464;16.922;2023-08-12T06:00:04;11.27;;;5.95;;
77109;SDS011;66062;52.464;16.922;2023-08-12T06:02:30;12.38;;;6.03;;
77109;SDS011;66062;52.464;16.922;2023-08-12T06:04:55;13.07;;;7.30;;
77109;SDS011;66062;52.464;16.922;2023-08-12T06:07:21;21.48;;;12.70;;
77109;SDS011;66062;52.464;16.922;2023-08-12T06:09:48;15.15;;;7.13;;
77109;SDS011;66062;52.464;16.922;2023-08-12T06:12:14;10.77;;;5.35;;
77109;SDS011;66062;52.464;16.922;2023-08-12T06:14:39;11.85;;;4.93;;
77109;SDS011;66062;52.464;16.922;2023-08-12T06:17:05;9.65;;;5.38;;
77109;SDS011;66062;52.464;16.922;2023-08-12T06:19:31;10.50;;;5.55;;
77109;SDS011;66062;52.464;16.922;2023-08-12T06:21:56;9.00;;;5.00;;
77109;SDS011;66062;52.464;16.922;2023-08-12T06:24:21;8.20;;;4.82;;
77109;SDS011;66062;52.464;16.922;2023-08-12T06:26:47;10.88;;;5.40;;
77109;SDS011;66062;52.464;16.922;2023-08-12T06:29:12;11.82;;;4.85;;
77109;SDS011;66062;52.464;16.922;2023-08-12T06:31:38;8.18;;;4.28;;
77109;SDS011;66062;52.464;16.922;2023-08-12T06:34:03;8.98;;;4.68;;
77109;SDS011;66062;52.464;16.922;2023-08-12T06:36:29;9.07;;;4.88;;
77109;SDS011;66062;52.464;16.922;2023-08-12T06:38:54;9.35;;;4.40;;
77109;SDS011;66062;52.464;16.922;2023-08-12T06:41:19;9.25;;;4.55;;
77109;SDS011;66062;52.464;16.922;2023-08-12T06:43:45;7.25;;;3.90;;
77109;SDS011;66062;52.464;16.922;2023-08-12T06:46:10;7.10;;;5.00;;
77109;SDS011;66062;52.464;16.922;2023-08-12T06:48:36;8.57;;;4.40;;
77109;SDS011;66062;52.464;16.922;2023-08-12T06:51:01;8.60;;;4.45;;
77109;SDS011;66062;52.464;16.922;2023-08-12T06:53:32;6.35;;;3.88;;
77109;SDS011;66062;52.464;16.922;2023-08-12T06:55:57;12.73;;;4.35;;
77109;SDS011;66062;52.464;16.922;2023-08-12T06:58:22;10.40;;;4.28;;
77109;SDS011;66062;52.464;16.922;2023-08-12T07:00:49;7.90;;;4.03;;
77109;SDS011;66062;52.464;16.922;2023-08-12T07:03:15;8.65;;;3.80;;
77109;SDS011;66062;52.464;16.922;2023-08-12T07:05:40;8.38;;;3.97;;
77109;SDS011;66062;52.464;16.922;2023-08-12T07:08:06;6.88;;;3.58;;
77109;SDS011;66062;52.464;16.922;2023-08-12T07:10:31;7.70;;;3.58;;
77109;SDS011;66062;52.464;16.922;2023-08-12T07:12:56;6.70;;;3.67;;
77109;SDS011;66062;52.464;16.922;2023-08-12T07:15:22;7.78;;;4.22;;
77109;SDS011;66062;52.464;16.922;2023-08-12T07:17:47;8.82;;;3.63;;
77109;SDS011;66062;52.464;16.922;2023-08-12T07:20:12;7.97;;;3.85;;
77109;SDS011;66062;52.464;16.922;2023-08-12T07:22:38;11.77;;;3.78;;
77109;SDS011;66062;52.464;16.922;2023-08-12T07:25:03;8.93;;;3.90;;
77109;SDS011;66062;52.464;16.922;2023-08-12T07:27:29;10.13;;;3.95;;
77109;SDS011;66062;52.464;16.922;2023-08-12T07:29:54;7.90;;;3.42;;
77109;SDS011;66062;52.464;16.922;2023-08-12T07:32:20;8.18;;;3.10;;
77109;SDS011;66062;52.464;16.922;2023-08-12T07:34:46;8.35;;;3.58;;
77109;SDS011;66062;52.464;16.922;2023-08-12T07:37:11;10.68;;;5.00;;
77109;SDS011;66062;52.464;16.922;2023-08-12T07:39:37;9.13;;;3.67;;
77109;SDS011;66062;52.464;16.922;2023-08-12T07:42:02;5.47;;;3.03;;
77109;SDS011;66062;52.464;16.922;2023-08-12T07:44:29;6.65;;;3.13;;
77109;SDS011;66062;52.464;16.922;2023-08-12T07:46:55;6.78;;;3.42;;
77109;SDS011;66062;52.464;16.922;2023-08-12T07:49:21;6.18;;;3.03;;
77109;SDS011;66062;52.464;16.922;2023-08-12T07:54:12;10.43;;;3.13;;
77109;SDS011;66062;52.464;16.922;2023-08-12T07:56:37;7.90;;;2.83;;
77109;SDS011;66062;52.464;16.922;2023-08-12T07:59:06;6.00;;;2.50;;
77109;SDS011;66062;52.464;16.922;2023-08-12T08:01:31;7.38;;;3.10;;
77109;SDS011;66062;52.464;16.922;2023-08-12T08:03:57;5.60;;;2.60;;
77109;SDS011;66062;52.464;16.922;2023-08-12T08:06:22;10.52;;;2.97;;
77109;SDS011;66062;52.464;16.922;2023-08-12T08:08:52;5.13;;;2.40;;
77109;SDS011;66062;52.464;16.922;2023-08-12T08:11:18;7.80;;;2.42;;
77109;SDS011;66062;52.464;16.922;2023-08-12T08:13:43;6.28;;;2.92;;
77109;SDS011;66062;52.464;16.922;2023-08-12T08:16:08;4.82;;;2.25;;
77109;SDS011;66062;52.464;16.922;2023-08-12T08:18:34;5.85;;;2.45;;
77109;SDS011;66062;52.464;16.922;2023-08-12T08:20:59;5.40;;;2.72;;
77109;SDS011;66062;52.464;16.922;2023-08-12T08:23:24;6.15;;;2.00;;
77109;SDS011;66062;52.464;16.922;2023-08-12T08:25:50;7.10;;;2.80;;
77109;SDS011;66062;52.464;16.922;2023-08-12T08:28:15;5.97;;;2.28;;
77109;SDS011;66062;52.464;16.922;2023-08-12T08:30:40;5.05;;;2.00;;
77109;SDS011;66062;52.464;16.922;2023-08-12T08:33:06;11.63;;;2.97;;
77109;SDS011;66062;52.464;16.922;2023-08-12T08:35:31;8.45;;;3.15;;
77109;SDS011;66062;52.464;16.922;2023-08-12T08:37:56;5.07;;;2.45;;
77109;SDS011;66062;52.464;16.922;2023-08-12T08:40:22;4.32;;;2.55;;
77109;SDS011;66062;52.464;16.922;2023-08-12T08:42:51;6.65;;;2.42;;
77109;SDS011;66062;52.464;16.922;2023-08-12T08:45:18;6.45;;;2.33;;
77109;SDS011;66062;52.464;16.922;2023-08-12T08:47:45;5.30;;;1.92;;
77109;SDS011;66062;52.464;16.922;2023-08-12T08:50:12;6.32;;;1.70;;
77109;SDS011;66062;52.464;16.922;2023-08-12T08:52:39;4.95;;;1.83;;
77109;SDS011;66062;52.464;16.922;2023-08-12T08:55:05;5.07;;;1.95;;
77109;SDS011;66062;52.464;16.922;2023-08-12T08:57:31;4.65;;;1.70;;
77109;SDS011;66062;52.464;16.922;2023-08-12T08:59:57;4.15;;;1.58;;
77109;SDS011;66062;52.464;16.922;2023-08-12T09:02:22;3.70;;;1.83;;
77109;SDS011;66062;52.464;16.922;2023-08-12T09:04:49;5.10;;;1.85;;
77109;SDS011;66062;52.464;16.922;2023-08-12T09:07:15;4.20;;;1.75;;
77109;SDS011;66062;52.464;16.922;2023-08-12T09:09:42;4.60;;;1.73;;
77109;SDS011;66062;52.464;16.922;2023-08-12T09:12:12;3.20;;;1.52;;
77109;SDS011;66062;52.464;16.922;2023-08-12T09:14:39;5.05;;;1.80;;
77109;SDS011;66062;52.464;16.922;2023-08-12T09:17:04;4.20;;;1.35;;
77109;SDS011;66062;52.464;16.922;2023-08-12T09:19:30;3.08;;;1.40;;
77109;SDS011;66062;52.464;16.922;2023-08-12T09:21:55;5.18;;;2.10;;
77109;SDS011;66062;52.464;16.922;2023-08-12T09:24:26;3.90;;;1.33;;
77109;SDS011;66062;52.464;16.922;2023-08-12T09:26:53;5.13;;;1.23;;
77109;SDS011;66062;52.464;16.922;2023-08-12T09:29:22;4.90;;;1.52;;
77109;SDS011;66062;52.464;16.922;2023-08-12T09:31:49;3.38;;;1.48;;
77109;SDS011;66062;52.464;16.922;2023-08-12T09:34:15;2.97;;;1.35;;
77109;SDS011;66062;52.464;16.922;2023-08-12T09:36:42;4.93;;;1.60;;
77109;SDS011;66062;52.464;16.922;2023-08-12T09:39:08;3.35;;;1.73;;
77109;SDS011;66062;52.464;16.922;2023-08-12T09:41:33;4.60;;;1.83;;
77109;SDS011;66062;52.464;16.922;2023-08-12T09:44:01;3.28;;;1.60;;
77109;SDS011;66062;52.464;16.922;2023-08-12T09:46:27;5.20;;;2.03;;
77109;SDS011;66062;52.464;16.922;2023-08-12T09:48:53;4.10;;;1.85;;
77109;SDS011;66062;52.464;16.922;2023-08-12T09:51:19;6.22;;;1.83;;
77109;SDS011;66062;52.464;16.922;2023-08-12T09:53:47;5.05;;;1.80;;
77109;SDS011;66062;52.464;16.922;2023-08-12T09:56:14;4.38;;;1.83;;
77109;SDS011;66062;52.464;16.922;2023-08-12T09:58:43;5.10;;;1.83;;
77109;SDS011;66062;52.464;16.922;2023-08-12T10:01:09;4.38;;;1.73;;
77109;SDS011;66062;52.464;16.922;2023-08-12T10:03:36;4.63;;;2.00;;
77109;SDS011;66062;52.464;16.922;2023-08-12T10:06:02;4.50;;;1.80;;
77109;SDS011;66062;52.464;16.922;2023-08-12T10:08:28;2.88;;;1.58;;
77109;SDS011;66062;52.464;16.922;2023-08-12T10:13:20;3.67;;;1.55;;
77109;SDS011;66062;52.464;16.922;2023-08-12T10:15:46;3.75;;;1.30;;
77109;SDS011;66062;52.464;16.922;2023-08-12T10:18:12;6.00;;;1.73;;
77109;SDS011;66062;52.464;16.922;2023-08-12T10:20:40;2.70;;;1.45;;
77109;SDS011;66062;52.464;16.922;2023-08-12T10:23:05;5.22;;;1.75;;
77109;SDS011;66062;52.464;16.922;2023-08-12T10:25:32;3.58;;;1.75;;
77109;SDS011;66062;52.464;16.922;2023-08-12T10:27:59;3.65;;;1.90;;
77109;SDS011;66062;52.464;16.922;2023-08-12T10:32:53;2.80;;;1.20;;
77109;SDS011;66062;52.464;16.922;2023-08-12T10:35:19;3.15;;;1.50;;
77109;SDS011;66062;52.464;16.922;2023-08-12T10:37:47;4.38;;;1.92;;
77109;SDS011;66062;52.464;16.922;2023-08-12T10:40:21;2.75;;;1.50;;
77109;SDS011;66062;52.464;16.922;2023-08-12T10:42:48;5.30;;;1.42;;
77109;SDS011;66062;52.464;16.922;2023-08-12T10:45:15;3.72;;;1.88;;
77109;SDS011;66062;52.464;16.922;2023-08-12T10:47:42;3.40;;;1.33;;
77109;SDS011;66062;52.464;16.922;2023-08-12T10:50:19;6.57;;;1.95;;
77109;SDS011;66062;52.464;16.922;2023-08-12T10:52:45;2.80;;;1.33;;
77109;SDS011;66062;52.464;16.922;2023-08-12T10:57:43;4.45;;;1.73;;
77109;SDS011;66062;52.464;16.922;2023-08-12T11:02:44;5.03;;;1.60;;
77109;SDS011;66062;52.464;16.922;2023-08-12T11:05:14;3.38;;;1.55;;
77109;SDS011;66062;52.464;16.922;2023-08-12T11:10:18;2.83;;;1.63;;
77109;SDS011;66062;52.464;16.922;2023-08-12T11:15:19;5.28;;;1.70;;
77109;SDS011;66062;52.464;16.922;2023-08-12T11:18:02;6.10;;;1.55;;
77109;SDS011;66062;52.464;16.922;2023-08-12T11:20:29;4.15;;;1.83;;
77109;SDS011;66062;52.464;16.922;2023-08-12T11:22:55;3.45;;;1.48;;
77109;SDS011;66062;52.464;16.922;2023-08-12T11:25:23;4.55;;;1.63;;
77109;SDS011;66062;52.464;16.922;2023-08-12T11:27:49;7.68;;;1.70;;
77109;SDS011;66062;52.464;16.922;2023-08-12T11:30:15;8.77;;;3.17;;
77109;SDS011;66062;52.464;16.922;2023-08-12T11:32:46;3.47;;;1.40;;
77109;SDS011;66062;52.464;16.922;2023-08-12T11:35:13;4.40;;;1.67;;
77109;SDS011;66062;52.464;16.922;2023-08-12T11:37:40;5.07;;;1.48;;
77109;SDS011;66062;52.464;16.922;2023-08-12T11:40:09;4.35;;;1.63;;
77109;SDS011;66062;52.464;16.922;2023-08-12T11:42:36;6.57;;;1.30;;
77109;SDS011;66062;52.464;16.922;2023-08-12T11:45:06;4.38;;;1.38;;
77109;SDS011;66062;52.464;16.922;2023-08-12T11:47:33;5.28;;;1.65;;
77109;SDS011;66062;52.464;16.922;2023-08-12T11:50:02;6.28;;;1.20;;
77109;SDS011;66062;52.464;16.922;2023-08-12T11:52:28;3.78;;;1.95;;
77109;SDS011;66062;52.464;16.922;2023-08-12T11:54:54;4.13;;;1.10;;
77109;SDS011;66062;52.464;16.922;2023-08-12T11:57:22;3.30;;;1.33;;
77109;SDS011;66062;52.464;16.922;2023-08-12T11:59:48;4.38;;;1.50;;
77109;SDS011;66062;52.464;16.922;2023-08-12T12:02:14;3.38;;;1.48;;
77109;SDS011;66062;52.464;16.922;2023-08-12T12:04:41;5.40;;;1.98;;
77109;SDS011;66062;52.464;16.922;2023-08-12T12:07:18;3.92;;;1.10;;
77109;SDS011;66062;52.464;16.922;2023-08-12T12:09:52;3.67;;;1.40;;
77109;SDS011;66062;52.464;16.922;2023-08-12T12:12:21;3.88;;;1.30;;
77109;SDS011;66062;52.464;16.922;2023-08-12T12:14:48;4.85;;;1.52;;
77109;SDS011;66062;52.464;16.922;2023-08-12T12:17:16;2.22;;;1.23;;
77109;SDS011;66062;52.464;16.922;2023-08-12T12:19:41;4.90;;;1.23;;
77109;SDS011;66062;52.464;16.922;2023-08-12T12:22:07;3.97;;;1.20;;
77109;SDS011;66062;52.464;16.922;2023-08-12T12:24:43;4.68;;;1.30;;
77109;SDS011;66062;52.464;16.922;2023-08-12T12:27:15;2.55;;;1.27;;
77109;SDS011;66062;52.464;16.922;2023-08-12T12:29:40;3.45;;;1.00;;
77109;SDS011;66062;52.464;16.922;2023-08-12T12:32:06;4.20;;;1.45;;
77109;SDS011;66062;52.464;16.922;2023-08-12T12:34:31;3.42;;;1.23;;
77109;SDS011;66062;52.464;16.922;2023-08-12T12:36:57;3.67;;;1.08;;
77109;SDS011;66062;52.464;16.922;2023-08-12T12:39:22;2.45;;;1.23;;
77109;SDS011;66062;52.464;16.922;2023-08-12T12:41:48;4.07;;;1.45;;
77109;SDS011;66062;52.464;16.922;2023-08-12T12:44:14;3.05;;;1.50;;
77109;SDS011;66062;52.464;16.922;2023-08-12T12:46:40;3.22;;;0.80;;
77109;SDS011;66062;52.464;16.922;2023-08-12T12:49:05;3.38;;;1.50;;
77109;SDS011;66062;52.464;16.922;2023-08-12T12:51:31;2.83;;;1.13;;
77109;SDS011;66062;52.464;16.922;2023-08-12T12:53:56;2.97;;;1.33;;
77109;SDS011;66062;52.464;16.922;2023-08-12T12:56:23;5.40;;;1.52;;
77109;SDS011;66062;52.464;16.922;2023-08-12T12:58:49;6.28;;;1.45;;
77109;SDS011;66062;52.464;16.922;2023-08-12T13:01:14;3.97;;;1.77;;
77109;SDS011;66062;52.464;16.922;2023-08-12T13:03:40;3.60;;;1.58;;
77109;SDS011;66062;52.464;16.922;2023-08-12T13:06:06;8.32;;;1.88;;
77109;SDS011;66062;52.464;16.922;2023-08-12T13:08:32;6.05;;;1.60;;
77109;SDS011;66062;52.464;16.922;2023-08-12T13:10:58;4.10;;;1.42;;
77109;SDS011;66062;52.464;16.922;2023-08-12T13:13:23;2.92;;;1.70;;
77109;SDS011;66062;52.464;16.922;2023-08-12T13:15:49;3.35;;;1.23;;
77109;SDS011;66062;52.464;16.922;2023-08-12T13:18:15;2.25;;;1.00;;
77109;SDS011;66062;52.464;16.922;2023-08-12T13:20:41;3.88;;;1.17;;
77109;SDS011;66062;52.464;16.922;2023-08-12T13:23:07;3.75;;;1.42;;
77109;SDS011;66062;52.464;16.922;2023-08-12T13:25:34;4.00;;;1.40;;
77109;SDS011;66062;52.464;16.922;2023-08-12T13:28:00;6.72;;;1.35;;
77109;SDS011;66062;52.464;16.922;2023-08-12T13:30:27;2.90;;;1.50;;
77109;SDS011;66062;52.464;16.922;2023-08-12T13:32:52;5.60;;;1.27;;
77109;SDS011;66062;52.464;16.922;2023-08-12T13:35:18;7.88;;;2.72;;
77109;SDS011;66062;52.464;16.922;2023-08-12T13:37:44;4.68;;;1.58;;
77109;SDS011;66062;52.464;16.922;2023-08-12T13:40:10;2.97;;;1.20;;
77109;SDS011;66062;52.464;16.922;2023-08-12T13:42:36;3.60;;;1.30;;
77109;SDS011;66062;52.464;16.922;2023-08-12T13:45:03;3.47;;;1.45;;
77109;SDS011;66062;52.464;16.922;2023-08-12T13:47:29;3.63;;;1.52;;
77109;SDS011;66062;52.464;16.922;2023-08-12T13:49:55;4.25;;;1.30;;
77109;SDS011;66062;52.464;16.922;2023-08-12T13:52:20;5.50;;;1.67;;
77109;SDS011;66062;52.464;16.922;2023-08-12T13:54:46;5.05;;;1.65;;
77109;SDS011;66062;52.464;16.922;2023-08-12T13:57:11;6.45;;;1.55;;
77109;SDS011;66062;52.464;16.922;2023-08-12T13:59:37;2.72;;;1.30;;
77109;SDS011;66062;52.464;16.922;2023-08-12T14:02:02;3.88;;;1.60;;
77109;SDS011;66062;52.464;16.922;2023-08-12T14:04:28;3.00;;;1.70;;
77109;SDS011;66062;52.464;16.922;2023-08-12T14:06:53;3.97;;;1.40;;
77109;SDS011;66062;52.464;16.922;2023-08-12T14:09:19;3.60;;;1.73;;
77109;SDS011;66062;52.464;16.922;2023-08-12T14:11:45;2.50;;;1.27;;
77109;SDS011;66062;52.464;16.922;2023-08-12T14:14:10;2.95;;;1.50;;
77109;SDS011;66062;52.464;16.922;2023-08-12T14:16:36;4.28;;;1.40;;
77109;SDS011;66062;52.464;16.922;2023-08-12T14:19:02;3.78;;;1.70;;
77109;SDS011;66062;52.464;16.922;2023-08-12T14:21:27;3.55;;;1.30;;
77109;SDS011;66062;52.464;16.922;2023-08-12T14:23:53;4.50;;;1.70;;
77109;SDS011;66062;52.464;16.922;2023-08-12T14:26:18;5.35;;;3.70;;
77109;SDS011;66062;52.464;16.922;2023-08-12T14:28:43;3.70;;;1.35;;
77109;SDS011;66062;52.464;16.922;2023-08-12T14:31:09;10.43;;;2.40;;
77109;SDS011;66062;52.464;16.922;2023-08-12T14:33:34;3.17;;;1.88;;
77109;SDS011;66062;52.464;16.922;2023-08-12T14:36:02;4.07;;;1.73;;
77109;SDS011;66062;52.464;16.922;2023-08-12T14:38:28;4.90;;;1.80;;
77109;SDS011;66062;52.464;16.922;2023-08-12T14:40:54;4.65;;;1.92;;
77109;SDS011;66062;52.464;16.922;2023-08-12T14:43:19;5.88;;;1.65;;
77109;SDS011;66062;52.464;16.922;2023-08-12T14:45:44;4.20;;;1.92;;
77109;SDS011;66062;52.464;16.922;2023-08-12T14:48:10;7.57;;;4.15;;
77109;SDS011;66062;52.464;16.922;2023-08-12T14:50:37;4.57;;;1.77;;